sensor_id;sensor_type;location;lat;lon;timestamp;pressure;altitude;pressure_sealevel;temperature
18704;BMP180;9481;48.796;9.210;2022-08-05T00:01:17;96280.00;;;32.00
18704;BMP180;9481;48.796;9.210;2022-08-05T00:03:43;96276.00;;;32.10
18704;BMP180;9481;48.796;9.210;2022-08-05T00:06:09;96275.00;;;32.10
18704;BMP180;9481;48.796;9.210;2022-08-05T00:08:36;96272.00;;;32.00
18704;BMP180;9481;48.796;9.210;2022-08-05T00:11:10;96273.00;;;32.00
18704;BMP180;9481;48.796;9.210;2022-08-05T00:13:38;96275.00;;;32.00
18704;BMP180;9481;48.796;9.210;2022-08-05T00:16:08;96271.00;;;32.00
18704;BMP180;9481;48.796;9.210;2022-08-05T00:18:36;96274.00;;;32.00
18704;BMP180;9481;48.796;9.210;2022-08-05T00:21:03;96274.00;;;32.00
18704;BMP180;9481;48.796;9.210;2022-08-05T00:23:29;96277.00;;;31.90
18704;BMP180;9481;48.796;9.210;2022-08-05T00:25:54;96287.00;;;31.90
18704;BMP180;9481;48.796;9.210;2022-08-05T00:28:20;96280.00;;;31.90
18704;BMP180;9481;48.796;9.210;2022-08-05T00:30:46;96280.00;;;31.90
18704;BMP180;9481;48.796;9.210;2022-08-05T00:33:11;96272.00;;;31.90
18704;BMP180;9481;48.796;9.210;2022-08-05T00:35:38;96271.00;;;31.90
18704;BMP180;9481;48.796;9.210;2022-08-05T00:38:03;96273.00;;;31.80
18704;BMP180;9481;48.796;9.210;2022-08-05T00:40:29;96279.00;;;31.80
18704;BMP180;9481;48.796;9.210;2022-08-05T00:43:01;96284.00;;;31.80
18704;BMP180;9481;48.796;9.210;2022-08-05T00:45:28;96285.00;;;31.80
18704;BMP180;9481;48.796;9.210;2022-08-05T00:47:54;96292.00;;;31.80
18704;BMP180;9481;48.796;9.210;2022-08-05T00:50:19;96286.00;;;31.70
18704;BMP180;9481;48.796;9.210;2022-08-05T00:52:45;96292.00;;;31.70
18704;BMP180;9481;48.796;9.210;2022-08-05T00:55:11;96285.00;;;31.70
18704;BMP180;9481;48.796;9.210;2022-08-05T00:57:36;96286.00;;;31.70
18704;BMP180;9481;48.796;9.210;2022-08-05T01:00:04;96290.00;;;31.70
18704;BMP180;9481;48.796;9.210;2022-08-05T01:02:31;96296.00;;;31.60
18704;BMP180;9481;48.796;9.210;2022-08-05T01:04:57;96305.00;;;31.60
18704;BMP180;9481;48.796;9.210;2022-08-05T01:07:23;96306.00;;;31.60
18704;BMP180;9481;48.796;9.210;2022-08-05T01:09:49;96320.00;;;31.50
18704;BMP180;9481;48.796;9.210;2022-08-05T01:12:19;96316.00;;;31.50
18704;BMP180;9481;48.796;9.210;2022-08-05T01:15:03;96311.00;;;31.40
18704;BMP180;9481;48.796;9.210;2022-08-05T01:17:44;96311.00;;;31.40
18704;BMP180;9481;48.796;9.210;2022-08-05T01:20:29;96317.00;;;31.40
18704;BMP180;9481;48.796;9.210;2022-08-05T01:25:46;96320.00;;;31.30
18704;BMP180;9481;48.796;9.210;2022-08-05T01:28:36;96329.00;;;31.20
18704;BMP180;9481;48.796;9.210;2022-08-05T01:31:23;96321.00;;;31.10
18704;BMP180;9481;48.796;9.210;2022-08-05T01:34:00;96333.00;;;31.10
18704;BMP180;9481;48.796;9.210;2022-08-05T01:36:34;96335.00;;;31.10
18704;BMP180;9481;48.796;9.210;2022-08-05T01:39:01;96339.00;;;31.00
18704;BMP180;9481;48.796;9.210;2022-08-05T01:41:33;96342.00;;;31.00
18704;BMP180;9481;48.796;9.210;2022-08-05T01:44:02;96343.00;;;31.00
18704;BMP180;9481;48.796;9.210;2022-08-05T01:46:30;96359.00;;;31.00
18704;BMP180;9481;48.796;9.210;2022-08-05T01:48:59;96359.00;;;30.90
18704;BMP180;9481;48.796;9.210;2022-08-05T01:51:30;96355.00;;;30.90
18704;BMP180;9481;48.796;9.210;2022-08-05T01:53:57;96350.00;;;30.80
18704;BMP180;9481;48.796;9.210;2022-08-05T01:56:28;96361.00;;;30.80
18704;BMP180;9481;48.796;9.210;2022-08-05T01:58:56;96367.00;;;30.80
18704;BMP180;9481;48.796;9.210;2022-08-05T02:01:26;96358.00;;;30.80
18704;BMP180;9481;48.796;9.210;2022-08-05T02:03:54;96369.00;;;30.80
18704;BMP180;9481;48.796;9.210;2022-08-05T02:06:21;96374.00;;;30.80
18704;BMP180;9481;48.796;9.210;2022-08-05T02:08:46;96360.00;;;30.80
18704;BMP180;9481;48.796;9.210;2022-08-05T02:11:15;96362.00;;;30.80
18704;BMP180;9481;48.796;9.210;2022-08-05T02:14:11;96366.00;;;30.70
18704;BMP180;9481;48.796;9.210;2022-08-05T02:16:54;96369.00;;;30.70
18704;BMP180;9481;48.796;9.210;2022-08-05T02:22:14;96353.00;;;30.60
18704;BMP180;9481;48.796;9.210;2022-08-05T02:24:47;96364.00;;;30.70
18704;BMP180;9481;48.796;9.210;2022-08-05T02:27:15;96372.00;;;30.70
18704;BMP180;9481;48.796;9.210;2022-08-05T02:29:44;96374.00;;;30.70
18704;BMP180;9481;48.796;9.210;2022-08-05T02:32:12;96363.00;;;30.80
18704;BMP180;9481;48.796;9.210;2022-08-05T02:34:38;96376.00;;;30.80
18704;BMP180;9481;48.796;9.210;2022-08-05T02:37:08;96373.00;;;30.80
18704;BMP180;9481;48.796;9.210;2022-08-05T02:39:37;96379.00;;;30.80
18704;BMP180;9481;48.796;9.210;2022-08-05T02:42:06;96375.00;;;30.70
18704;BMP180;9481;48.796;9.210;2022-08-05T02:44:36;96380.00;;;30.70
18704;BMP180;9481;48.796;9.210;2022-08-05T02:47:06;96382.00;;;30.70
18704;BMP180;9481;48.796;9.210;2022-08-05T02:49:35;96394.00;;;30.70
18704;BMP180;9481;48.796;9.210;2022-08-05T02:52:04;96394.00;;;30.70
18704;BMP180;9481;48.796;9.210;2022-08-05T02:54:33;96391.00;;;30.70
18704;BMP180;9481;48.796;9.210;2022-08-05T02:56:59;96394.00;;;30.70
18704;BMP180;9481;48.796;9.210;2022-08-05T02:59:28;96385.00;;;30.70
18704;BMP180;9481;48.796;9.210;2022-08-05T03:01:56;96391.00;;;30.70
18704;BMP180;9481;48.796;9.210;2022-08-05T03:04:26;96384.00;;;30.70
18704;BMP180;9481;48.796;9.210;2022-08-05T03:06:53;96389.00;;;30.70
18704;BMP180;9481;48.796;9.210;2022-08-05T03:09:19;96398.00;;;30.70
18704;BMP180;9481;48.796;9.210;2022-08-05T03:11:45;96396.00;;;30.60
18704;BMP180;9481;48.796;9.210;2022-08-05T03:14:11;96405.00;;;30.60
18704;BMP180;9481;48.796;9.210;2022-08-05T03:16:37;96411.00;;;30.60
18704;BMP180;9481;48.796;9.210;2022-08-05T03:19:03;96423.00;;;30.60
18704;BMP180;9481;48.796;9.210;2022-08-05T03:21:30;96422.00;;;30.60
18704;BMP180;9481;48.796;9.210;2022-08-05T03:23:56;96416.00;;;30.60
18704;BMP180;9481;48.796;9.210;2022-08-05T03:26:22;96416.00;;;30.60
18704;BMP180;9481;48.796;9.210;2022-08-05T03:28:48;96411.00;;;30.50
18704;BMP180;9481;48.796;9.210;2022-08-05T03:31:14;96421.00;;;30.50
18704;BMP180;9481;48.796;9.210;2022-08-05T03:33:40;96417.00;;;30.50
18704;BMP180;9481;48.796;9.210;2022-08-05T03:36:06;96422.00;;;30.50
18704;BMP180;9481;48.796;9.210;2022-08-05T03:38:32;96416.00;;;30.40
18704;BMP180;9481;48.796;9.210;2022-08-05T03:40:58;96416.00;;;30.40
18704;BMP180;9481;48.796;9.210;2022-08-05T03:43:23;96418.00;;;30.40
18704;BMP180;9481;48.796;9.210;2022-08-05T03:45:51;96415.00;;;30.40
18704;BMP180;9481;48.796;9.210;2022-08-05T03:48:21;96418.00;;;30.30
18704;BMP180;9481;48.796;9.210;2022-08-05T03:50:52;96418.00;;;30.30
18704;BMP180;9481;48.796;9.210;2022-08-05T03:53:30;96422.00;;;30.20
18704;BMP180;9481;48.796;9.210;2022-08-05T03:56:21;96413.00;;;30.20
18704;BMP180;9481;48.796;9.210;2022-08-05T03:58:52;96403.00;;;30.20
18704;BMP180;9481;48.796;9.210;2022-08-05T04:01:21;96395.00;;;30.20
18704;BMP180;9481;48.796;9.210;2022-08-05T04:03:49;96390.00;;;30.20
18704;BMP180;9481;48.796;9.210;2022-08-05T04:06:17;96387.00;;;30.10
18704;BMP180;9481;48.796;9.210;2022-08-05T04:08:44;96384.00;;;30.10
18704;BMP180;9481;48.796;9.210;2022-08-05T04:11:10;96398.00;;;30.10
18704;BMP180;9481;48.796;9.210;2022-08-05T04:13:41;96408.00;;;30.10
18704;BMP180;9481;48.796;9.210;2022-08-05T04:16:08;96416.00;;;30.10
18704;BMP180;9481;48.796;9.210;2022-08-05T04:18:35;96424.00;;;30.10
18704;BMP180;9481;48.796;9.210;2022-08-05T04:21:05;96433.00;;;30.00
18704;BMP180;9481;48.796;9.210;2022-08-05T04:23:33;96435.00;;;30.00
18704;BMP180;9481;48.796;9.210;2022-08-05T04:26:00;96435.00;;;29.90
18704;BMP180;9481;48.796;9.210;2022-08-05T04:28:26;96438.00;;;29.90
18704;BMP180;9481;48.796;9.210;2022-08-05T04:30:51;96441.00;;;29.90
18704;BMP180;9481;48.796;9.210;2022-08-05T04:33:17;96446.00;;;29.80
18704;BMP180;9481;48.796;9.210;2022-08-05T04:35:43;96454.00;;;29.80
18704;BMP180;9481;48.796;9.210;2022-08-05T04:38:09;96469.00;;;29.80
18704;BMP180;9481;48.796;9.210;2022-08-05T04:40:37;96485.00;;;29.80
18704;BMP180;9481;48.796;9.210;2022-08-05T04:43:03;96485.00;;;29.80
18704;BMP180;9481;48.796;9.210;2022-08-05T04:45:29;96495.00;;;29.80
18704;BMP180;9481;48.796;9.210;2022-08-05T04:48:10;96502.00;;;29.70
18704;BMP180;9481;48.796;9.210;2022-08-05T04:50:46;96495.00;;;29.70
18704;BMP180;9481;48.796;9.210;2022-08-05T04:53:13;96506.00;;;29.70
18704;BMP180;9481;48.796;9.210;2022-08-05T04:55:40;96517.00;;;29.70
18704;BMP180;9481;48.796;9.210;2022-08-05T04:58:10;96529.00;;;29.70
18704;BMP180;9481;48.796;9.210;2022-08-05T05:00:38;96525.00;;;29.70
18704;BMP180;9481;48.796;9.210;2022-08-05T05:03:05;96526.00;;;29.70
18704;BMP180;9481;48.796;9.210;2022-08-05T05:05:32;96555.00;;;29.70
18704;BMP180;9481;48.796;9.210;2022-08-05T05:08:05;96567.00;;;29.70
18704;BMP180;9481;48.796;9.210;2022-08-05T05:10:45;96580.00;;;29.70
18704;BMP180;9481;48.796;9.210;2022-08-05T05:13:15;96595.00;;;29.60
18704;BMP180;9481;48.796;9.210;2022-08-05T05:15:43;96597.00;;;29.70
18704;BMP180;9481;48.796;9.210;2022-08-05T05:18:12;96605.00;;;29.70
18704;BMP180;9481;48.796;9.210;2022-08-05T05:20:39;96597.00;;;29.70
18704;BMP180;9481;48.796;9.210;2022-08-05T05:23:04;96593.00;;;29.70
18704;BMP180;9481;48.796;9.210;2022-08-05T05:25:30;96594.00;;;29.70
18704;BMP180;9481;48.796;9.210;2022-08-05T05:27:56;96591.00;;;29.70
18704;BMP180;9481;48.796;9.210;2022-08-05T05:30:22;96601.00;;;29.80
18704;BMP180;9481;48.796;9.210;2022-08-05T05:32:48;96606.00;;;29.80
18704;BMP180;9481;48.796;9.210;2022-08-05T05:35:14;96602.00;;;29.80
18704;BMP180;9481;48.796;9.210;2022-08-05T05:37:56;96609.00;;;29.80
18704;BMP180;9481;48.796;9.210;2022-08-05T05:40:26;96610.00;;;29.90
18704;BMP180;9481;48.796;9.210;2022-08-05T05:42:52;96617.00;;;29.90
18704;BMP180;9481;48.796;9.210;2022-08-05T05:45:19;96621.00;;;30.00
18704;BMP180;9481;48.796;9.210;2022-08-05T05:47:46;96631.00;;;30.10
18704;BMP180;9481;48.796;9.210;2022-08-05T05:50:14;96644.00;;;30.10
18704;BMP180;9481;48.796;9.210;2022-08-05T05:52:41;96653.00;;;30.20
18704;BMP180;9481;48.796;9.210;2022-08-05T05:55:11;96662.00;;;30.20
18704;BMP180;9481;48.796;9.210;2022-08-05T05:57:40;96662.00;;;30.20
18704;BMP180;9481;48.796;9.210;2022-08-05T06:00:11;96662.00;;;30.30
18704;BMP180;9481;48.796;9.210;2022-08-05T06:02:37;96662.00;;;30.30
18704;BMP180;9481;48.796;9.210;2022-08-05T06:05:07;96648.00;;;30.30
18704;BMP180;9481;48.796;9.210;2022-08-05T06:07:32;96656.00;;;30.30
18704;BMP180;9481;48.796;9.210;2022-08-05T06:09:58;96670.00;;;30.40
18704;BMP180;9481;48.796;9.210;2022-08-05T06:12:24;96674.00;;;30.40
18704;BMP180;9481;48.796;9.210;2022-08-05T06:14:49;96668.00;;;30.40
18704;BMP180;9481;48.796;9.210;2022-08-05T06:17:15;96655.00;;;30.50
18704;BMP180;9481;48.796;9.210;2022-08-05T06:19:41;96650.00;;;30.60
18704;BMP180;9481;48.796;9.210;2022-08-05T06:22:07;96648.00;;;30.60
18704;BMP180;9481;48.796;9.210;2022-08-05T06:24:34;96643.00;;;30.70
18704;BMP180;9481;48.796;9.210;2022-08-05T06:27:01;96642.00;;;30.70
18704;BMP180;9481;48.796;9.210;2022-08-05T06:29:26;96652.00;;;30.70
18704;BMP180;9481;48.796;9.210;2022-08-05T06:31:52;96658.00;;;30.70
18704;BMP180;9481;48.796;9.210;2022-08-05T06:34:18;96650.00;;;30.80
18704;BMP180;9481;48.796;9.210;2022-08-05T06:36:44;96653.00;;;30.80
18704;BMP180;9481;48.796;9.210;2022-08-05T06:39:09;96648.00;;;30.90
18704;BMP180;9481;48.796;9.210;2022-08-05T06:41:35;96648.00;;;31.00
18704;BMP180;9481;48.796;9.210;2022-08-05T06:44:01;96645.00;;;31.10
18704;BMP180;9481;48.796;9.210;2022-08-05T06:46:27;96637.00;;;31.20
18704;BMP180;9481;48.796;9.210;2022-08-05T06:48:53;96633.00;;;31.20
18704;BMP180;9481;48.796;9.210;2022-08-05T06:51:19;96644.00;;;31.30
18704;BMP180;9481;48.796;9.210;2022-08-05T06:53:44;96642.00;;;31.40
18704;BMP180;9481;48.796;9.210;2022-08-05T06:56:10;96645.00;;;31.50
18704;BMP180;9481;48.796;9.210;2022-08-05T06:58:36;96653.00;;;31.50
18704;BMP180;9481;48.796;9.210;2022-08-05T07:01:04;96653.00;;;31.60
18704;BMP180;9481;48.796;9.210;2022-08-05T07:03:30;96643.00;;;31.70
18704;BMP180;9481;48.796;9.210;2022-08-05T07:05:57;96650.00;;;31.80
18704;BMP180;9481;48.796;9.210;2022-08-05T07:08:23;96658.00;;;31.90
18704;BMP180;9481;48.796;9.210;2022-08-05T07:10:50;96664.00;;;31.90
18704;BMP180;9481;48.796;9.210;2022-08-05T07:13:16;96676.00;;;32.00
18704;BMP180;9481;48.796;9.210;2022-08-05T07:16:01;96677.00;;;32.10
18704;BMP180;9481;48.796;9.210;2022-08-05T07:18:45;96676.00;;;32.10
18704;BMP180;9481;48.796;9.210;2022-08-05T07:21:11;96683.00;;;32.10
18704;BMP180;9481;48.796;9.210;2022-08-05T07:23:37;96683.00;;;32.20
18704;BMP180;9481;48.796;9.210;2022-08-05T07:26:03;96684.00;;;32.30
18704;BMP180;9481;48.796;9.210;2022-08-05T07:28:29;96688.00;;;32.30
18704;BMP180;9481;48.796;9.210;2022-08-05T07:30:55;96698.00;;;32.30
18704;BMP180;9481;48.796;9.210;2022-08-05T07:33:21;96692.00;;;32.30
18704;BMP180;9481;48.796;9.210;2022-08-05T07:35:47;96688.00;;;32.40
18704;BMP180;9481;48.796;9.210;2022-08-05T07:38:17;96694.00;;;32.40
18704;BMP180;9481;48.796;9.210;2022-08-05T07:40:44;96695.00;;;32.40
18704;BMP180;9481;48.796;9.210;2022-08-05T07:43:11;96697.00;;;32.40
18704;BMP180;9481;48.796;9.210;2022-08-05T07:45:40;96697.00;;;32.50
18704;BMP180;9481;48.796;9.210;2022-08-05T07:48:06;96700.00;;;32.40
18704;BMP180;9481;48.796;9.210;2022-08-05T07:50:32;96698.00;;;32.50
18704;BMP180;9481;48.796;9.210;2022-08-05T07:52:58;96695.00;;;32.50
18704;BMP180;9481;48.796;9.210;2022-08-05T07:55:24;96695.00;;;32.50
18704;BMP180;9481;48.796;9.210;2022-08-05T07:57:50;96701.00;;;32.60
18704;BMP180;9481;48.796;9.210;2022-08-05T08:00:16;96700.00;;;32.60
18704;BMP180;9481;48.796;9.210;2022-08-05T08:02:41;96698.00;;;32.70
18704;BMP180;9481;48.796;9.210;2022-08-05T08:05:09;96691.00;;;32.70
18704;BMP180;9481;48.796;9.210;2022-08-05T08:07:36;96700.00;;;32.80
18704;BMP180;9481;48.796;9.210;2022-08-05T08:10:03;96707.00;;;32.80
18704;BMP180;9481;48.796;9.210;2022-08-05T08:12:29;96710.00;;;32.90
18704;BMP180;9481;48.796;9.210;2022-08-05T08:14:55;96700.00;;;32.90
18704;BMP180;9481;48.796;9.210;2022-08-05T08:17:21;96708.00;;;32.90
18704;BMP180;9481;48.796;9.210;2022-08-05T08:19:47;96701.00;;;33.00
18704;BMP180;9481;48.796;9.210;2022-08-05T08:22:13;96701.00;;;33.00
18704;BMP180;9481;48.796;9.210;2022-08-05T08:24:38;96701.00;;;33.00
18704;BMP180;9481;48.796;9.210;2022-08-05T08:27:05;96698.00;;;33.10
18704;BMP180;9481;48.796;9.210;2022-08-05T08:29:31;96692.00;;;33.10
18704;BMP180;9481;48.796;9.210;2022-08-05T08:31:57;96706.00;;;33.20
18704;BMP180;9481;48.796;9.210;2022-08-05T08:34:25;96701.00;;;33.20
18704;BMP180;9481;48.796;9.210;2022-08-05T08:36:52;96701.00;;;33.30
18704;BMP180;9481;48.796;9.210;2022-08-05T08:39:18;96704.00;;;33.30
18704;BMP180;9481;48.796;9.210;2022-08-05T08:41:47;96706.00;;;33.40
18704;BMP180;9481;48.796;9.210;2022-08-05T08:44:16;96700.00;;;33.50
18704;BMP180;9481;48.796;9.210;2022-08-05T08:46:43;96699.00;;;33.60
18704;BMP180;9481;48.796;9.210;2022-08-05T08:49:15;96684.00;;;33.60
18704;BMP180;9481;48.796;9.210;2022-08-05T08:52:00;96682.00;;;33.70
18704;BMP180;9481;48.796;9.210;2022-08-05T08:54:29;96676.00;;;33.80
18704;BMP180;9481;48.796;9.210;2022-08-05T08:56:56;96670.00;;;33.90
18704;BMP180;9481;48.796;9.210;2022-08-05T08:59:23;96663.00;;;34.00
18704;BMP180;9481;48.796;9.210;2022-08-05T09:01:50;96668.00;;;34.10
18704;BMP180;9481;48.796;9.210;2022-08-05T09:04:16;96681.00;;;34.20
18704;BMP180;9481;48.796;9.210;2022-08-05T09:06:42;96667.00;;;34.30
18704;BMP180;9481;48.796;9.210;2022-08-05T09:09:08;96664.00;;;34.40
18704;BMP180;9481;48.796;9.210;2022-08-05T09:11:34;96660.00;;;34.50
18704;BMP180;9481;48.796;9.210;2022-08-05T09:14:02;96668.00;;;34.60
18704;BMP180;9481;48.796;9.210;2022-08-05T09:16:28;96660.00;;;34.70
18704;BMP180;9481;48.796;9.210;2022-08-05T09:18:54;96656.00;;;34.80
18704;BMP180;9481;48.796;9.210;2022-08-05T09:21:19;96641.00;;;34.80
18704;BMP180;9481;48.796;9.210;2022-08-05T09:24:03;96639.00;;;34.70
18704;BMP180;9481;48.796;9.210;2022-08-05T09:26:29;96642.00;;;34.70
18704;BMP180;9481;48.796;9.210;2022-08-05T09:29:00;96647.00;;;34.70
18704;BMP180;9481;48.796;9.210;2022-08-05T09:31:30;96652.00;;;34.80
18704;BMP180;9481;48.796;9.210;2022-08-05T09:34:07;96639.00;;;34.80
18704;BMP180;9481;48.796;9.210;2022-08-05T09:36:50;96639.00;;;34.90
18704;BMP180;9481;48.796;9.210;2022-08-05T09:39:18;96641.00;;;35.00
18704;BMP180;9481;48.796;9.210;2022-08-05T09:41:59;96633.00;;;34.90
18704;BMP180;9481;48.796;9.210;2022-08-05T09:44:45;96626.00;;;34.90
18704;BMP180;9481;48.796;9.210;2022-08-05T09:47:17;96621.00;;;35.00
18704;BMP180;9481;48.796;9.210;2022-08-05T09:49:53;96623.00;;;35.10
18704;BMP180;9481;48.796;9.210;2022-08-05T09:52:26;96622.00;;;35.10
18704;BMP180;9481;48.796;9.210;2022-08-05T09:55:05;96624.00;;;35.20
18704;BMP180;9481;48.796;9.210;2022-08-05T09:57:44;96625.00;;;35.40
18704;BMP180;9481;48.796;9.210;2022-08-05T10:00:20;96628.00;;;35.50
18704;BMP180;9481;48.796;9.210;2022-08-05T10:02:53;96627.00;;;35.60
18704;BMP180;9481;48.796;9.210;2022-08-05T10:05:27;96623.00;;;35.80
18704;BMP180;9481;48.796;9.210;2022-08-05T10:07:59;96629.00;;;35.90
18704;BMP180;9481;48.796;9.210;2022-08-05T10:10:38;96625.00;;;36.00
18704;BMP180;9481;48.796;9.210;2022-08-05T10:13:11;96629.00;;;36.10
18704;BMP180;9481;48.796;9.210;2022-08-05T10:15:49;96630.00;;;36.20
18704;BMP180;9481;48.796;9.210;2022-08-05T10:18:19;96628.00;;;36.20
18704;BMP180;9481;48.796;9.210;2022-08-05T10:21:07;96630.00;;;36.20
18704;BMP180;9481;48.796;9.210;2022-08-05T10:23:37;96620.00;;;36.30
18704;BMP180;9481;48.796;9.210;2022-08-05T10:26:09;96615.00;;;36.40
18704;BMP180;9481;48.796;9.210;2022-08-05T10:28:37;96619.00;;;36.50
18704;BMP180;9481;48.796;9.210;2022-08-05T10:31:03;96626.00;;;36.50
18704;BMP180;9481;48.796;9.210;2022-08-05T10:33:31;96617.00;;;36.60
18704;BMP180;9481;48.796;9.210;2022-08-05T10:36:00;96619.00;;;36.60
18704;BMP180;9481;48.796;9.210;2022-08-05T10:38:29;96610.00;;;36.70
18704;BMP180;9481;48.796;9.210;2022-08-05T10:41:08;96615.00;;;36.70
18704;BMP180;9481;48.796;9.210;2022-08-05T10:43:46;96615.00;;;36.80
18704;BMP180;9481;48.796;9.210;2022-08-05T10:46:17;96602.00;;;36.90
18704;BMP180;9481;48.796;9.210;2022-08-05T10:48:49;96617.00;;;37.00
18704;BMP180;9481;48.796;9.210;2022-08-05T10:51:18;96610.00;;;37.00
18704;BMP180;9481;48.796;9.210;2022-08-05T10:56:19;96614.00;;;37.10
18704;BMP180;9481;48.796;9.210;2022-08-05T11:01:40;96606.00;;;37.10
18704;BMP180;9481;48.796;9.210;2022-08-05T11:04:16;96608.00;;;37.20
18704;BMP180;9481;48.796;9.210;2022-08-05T11:15:24;96612.00;;;37.20
18704;BMP180;9481;48.796;9.210;2022-08-05T11:18:05;96620.00;;;37.30
18704;BMP180;9481;48.796;9.210;2022-08-05T11:22:59;96628.00;;;37.50
18704;BMP180;9481;48.796;9.210;2022-08-05T11:25:38;96628.00;;;37.50
18704;BMP180;9481;48.796;9.210;2022-08-05T11:33:28;96630.00;;;37.80
18704;BMP180;9481;48.796;9.210;2022-08-05T11:35:57;96615.00;;;37.80
18704;BMP180;9481;48.796;9.210;2022-08-05T11:38:52;96627.00;;;37.80
18704;BMP180;9481;48.796;9.210;2022-08-05T11:41:23;96630.00;;;37.90
18704;BMP180;9481;48.796;9.210;2022-08-05T11:44:10;96625.00;;;38.00
18704;BMP180;9481;48.796;9.210;2022-08-05T11:46:51;96623.00;;;38.00
18704;BMP180;9481;48.796;9.210;2022-08-05T11:49:20;96627.00;;;38.10
18704;BMP180;9481;48.796;9.210;2022-08-05T11:51:51;96619.00;;;38.10
18704;BMP180;9481;48.796;9.210;2022-08-05T11:54:29;96616.00;;;38.10
18704;BMP180;9481;48.796;9.210;2022-08-05T11:56:57;96618.00;;;38.10
18704;BMP180;9481;48.796;9.210;2022-08-05T11:59:27;96623.00;;;38.20
18704;BMP180;9481;48.796;9.210;2022-08-05T12:04:48;96617.00;;;38.10
18704;BMP180;9481;48.796;9.210;2022-08-05T12:07:16;96606.00;;;38.10
18704;BMP180;9481;48.796;9.210;2022-08-05T12:09:51;96602.00;;;38.10
18704;BMP180;9481;48.796;9.210;2022-08-05T12:12:25;96599.00;;;38.20
18704;BMP180;9481;48.796;9.210;2022-08-05T12:14:55;96604.00;;;38.30
18704;BMP180;9481;48.796;9.210;2022-08-05T12:17:21;96607.00;;;38.30
18704;BMP180;9481;48.796;9.210;2022-08-05T12:19:53;96606.00;;;38.30
18704;BMP180;9481;48.796;9.210;2022-08-05T12:22:26;96596.00;;;38.30
18704;BMP180;9481;48.796;9.210;2022-08-05T12:24:52;96594.00;;;38.40
18704;BMP180;9481;48.796;9.210;2022-08-05T12:27:26;96588.00;;;38.40
18704;BMP180;9481;48.796;9.210;2022-08-05T12:30:06;96599.00;;;38.50
18704;BMP180;9481;48.796;9.210;2022-08-05T12:32:33;96591.00;;;38.60
18704;BMP180;9481;48.796;9.210;2022-08-05T12:35:04;96589.00;;;38.50
18704;BMP180;9481;48.796;9.210;2022-08-05T12:37:30;96590.00;;;38.50
18704;BMP180;9481;48.796;9.210;2022-08-05T12:39:57;96590.00;;;38.40
18704;BMP180;9481;48.796;9.210;2022-08-05T12:42:22;96594.00;;;38.30
18704;BMP180;9481;48.796;9.210;2022-08-05T12:44:49;96585.00;;;38.30
18704;BMP180;9481;48.796;9.210;2022-08-05T12:47:40;96593.00;;;38.20
18704;BMP180;9481;48.796;9.210;2022-08-05T12:50:15;96584.00;;;38.30
18704;BMP180;9481;48.796;9.210;2022-08-05T12:52:41;96578.00;;;38.40
18704;BMP180;9481;48.796;9.210;2022-08-05T12:55:26;96583.00;;;38.40
18704;BMP180;9481;48.796;9.210;2022-08-05T12:57:55;96574.00;;;38.50
18704;BMP180;9481;48.796;9.210;2022-08-05T13:00:26;96576.00;;;38.60
18704;BMP180;9481;48.796;9.210;2022-08-05T13:02:53;96571.00;;;38.60
18704;BMP180;9481;48.796;9.210;2022-08-05T13:05:22;96572.00;;;38.70
18704;BMP180;9481;48.796;9.210;2022-08-05T13:07:48;96572.00;;;38.80
18704;BMP180;9481;48.796;9.210;2022-08-05T13:10:17;96577.00;;;38.80
18704;BMP180;9481;48.796;9.210;2022-08-05T13:12:44;96568.00;;;38.90
18704;BMP180;9481;48.796;9.210;2022-08-05T13:15:12;96567.00;;;38.90
18704;BMP180;9481;48.796;9.210;2022-08-05T13:17:38;96572.00;;;38.80
18704;BMP180;9481;48.796;9.210;2022-08-05T13:20:14;96571.00;;;38.60
18704;BMP180;9481;48.796;9.210;2022-08-05T13:22:48;96566.00;;;38.50
18704;BMP180;9481;48.796;9.210;2022-08-05T13:25:16;96569.00;;;38.40
18704;BMP180;9481;48.796;9.210;2022-08-05T13:27:52;96560.00;;;38.30
18704;BMP180;9481;48.796;9.210;2022-08-05T13:30:21;96558.00;;;38.30
18704;BMP180;9481;48.796;9.210;2022-08-05T13:32:48;96547.00;;;38.30
18704;BMP180;9481;48.796;9.210;2022-08-05T13:35:16;96552.00;;;38.30
18704;BMP180;9481;48.796;9.210;2022-08-05T13:37:42;96550.00;;;38.30
18704;BMP180;9481;48.796;9.210;2022-08-05T13:40:09;96550.00;;;38.20
18704;BMP180;9481;48.796;9.210;2022-08-05T13:42:35;96547.00;;;38.20
18704;BMP180;9481;48.796;9.210;2022-08-05T13:45:02;96541.00;;;38.10
18704;BMP180;9481;48.796;9.210;2022-08-05T13:47:28;96544.00;;;38.00
18704;BMP180;9481;48.796;9.210;2022-08-05T13:49:53;96538.00;;;38.00
18704;BMP180;9481;48.796;9.210;2022-08-05T13:52:22;96533.00;;;37.90
18704;BMP180;9481;48.796;9.210;2022-08-05T13:54:51;96536.00;;;37.80
18704;BMP180;9481;48.796;9.210;2022-08-05T13:57:17;96535.00;;;37.70
18704;BMP180;9481;48.796;9.210;2022-08-05T13:59:43;96527.00;;;37.60
18704;BMP180;9481;48.796;9.210;2022-08-05T14:02:11;96539.00;;;37.50
18704;BMP180;9481;48.796;9.210;2022-08-05T14:04:40;96538.00;;;37.40
18704;BMP180;9481;48.796;9.210;2022-08-05T14:07:28;96535.00;;;37.30
18704;BMP180;9481;48.796;9.210;2022-08-05T14:09:55;96543.00;;;37.20
18704;BMP180;9481;48.796;9.210;2022-08-05T14:12:21;96538.00;;;37.00
18704;BMP180;9481;48.796;9.210;2022-08-05T14:14:47;96533.00;;;36.90
18704;BMP180;9481;48.796;9.210;2022-08-05T14:17:13;96533.00;;;36.80
18704;BMP180;9481;48.796;9.210;2022-08-05T14:19:40;96532.00;;;36.70
18704;BMP180;9481;48.796;9.210;2022-08-05T14:22:06;96535.00;;;36.60
18704;BMP180;9481;48.796;9.210;2022-08-05T14:24:32;96530.00;;;36.50
18704;BMP180;9481;48.796;9.210;2022-08-05T14:26:58;96532.00;;;36.40
18704;BMP180;9481;48.796;9.210;2022-08-05T14:29:24;96531.00;;;36.30
18704;BMP180;9481;48.796;9.210;2022-08-05T14:31:49;96537.00;;;36.20
18704;BMP180;9481;48.796;9.210;2022-08-05T14:34:15;96536.00;;;36.10
18704;BMP180;9481;48.796;9.210;2022-08-05T14:36:41;96535.00;;;36.00
18704;BMP180;9481;48.796;9.210;2022-08-05T14:39:06;96536.00;;;35.90
18704;BMP180;9481;48.796;9.210;2022-08-05T14:41:33;96535.00;;;35.80
18704;BMP180;9481;48.796;9.210;2022-08-05T14:43:59;96543.00;;;35.80
18704;BMP180;9481;48.796;9.210;2022-08-05T14:46:27;96545.00;;;35.70
18704;BMP180;9481;48.796;9.210;2022-08-05T14:48:53;96538.00;;;35.50
18704;BMP180;9481;48.796;9.210;2022-08-05T14:51:19;96529.00;;;35.40
18704;BMP180;9481;48.796;9.210;2022-08-05T14:53:45;96534.00;;;35.30
18704;BMP180;9481;48.796;9.210;2022-08-05T14:56:11;96543.00;;;35.30
18704;BMP180;9481;48.796;9.210;2022-08-05T14:58:38;96542.00;;;35.20
18704;BMP180;9481;48.796;9.210;2022-08-05T15:01:03;96532.00;;;35.20
18704;BMP180;9481;48.796;9.210;2022-08-05T15:03:30;96539.00;;;35.10